sensor_id;sensor_type;location;lat;lon;timestamp;P1;durP1;ratioP1;P2;durP2;ratioP2
75550;SDS011;65071;53.082;18.218;2024-02-23T00:01:31;10.70;;;6.50;;
75550;SDS011;65071;53.082;18.218;2024-02-23T00:04:00;10.10;;;6.20;;
75550;SDS011;65071;53.082;18.218;2024-02-23T00:06:30;11.80;;;6.40;;
75550;SDS011;65071;53.082;18.218;2024-02-23T00:08:58;13.10;;;6.20;;
75550;SDS011;65071;53.082;18.218;2024-02-23T00:11:29;13.20;;;6.70;;
75550;SDS011;65071;53.082;18.218;2024-02-23T00:14:00;10.50;;;5.60;;
75550;SDS011;65071;53.082;18.218;2024-02-23T00:16:30;10.10;;;5.50;;
75550;SDS011;65071;53.082;18.218;2024-02-23T00:19:03;9.80;;;5.60;;
75550;SDS011;65071;53.082;18.218;2024-02-23T00:21:30;14.90;;;6.10;;
75550;SDS011;65071;53.082;18.218;2024-02-23T00:23:59;11.10;;;6.20;;
75550;SDS011;65071;53.082;18.218;2024-02-23T00:26:29;9.80;;;6.10;;
75550;SDS011;65071;53.082;18.218;2024-02-23T00:29:00;10.00;;;5.70;;
75550;SDS011;65071;53.082;18.218;2024-02-23T00:31:29;9.60;;;5.80;;
75550;SDS011;65071;53.082;18.218;2024-02-23T00:33:57;10.70;;;6.30;;
75550;SDS011;65071;53.082;18.218;2024-02-23T00:36:26;8.60;;;4.90;;
75550;SDS011;65071;53.082;18.218;2024-02-23T00:38:56;9.60;;;6.00;;
75550;SDS011;65071;53.082;18.218;2024-02-23T00:41:26;9.00;;;5.00;;
75550;SDS011;65071;53.082;18.218;2024-02-23T00:43:55;12.10;;;6.80;;
75550;SDS011;65071;53.082;18.218;2024-02-23T00:46:25;8.80;;;5.00;;
75550;SDS011;65071;53.082;18.218;2024-02-23T00:48:55;11.40;;;5.80;;
75550;SDS011;65071;53.082;18.218;2024-02-23T00:51:24;11.00;;;6.20;;
75550;SDS011;65071;53.082;18.218;2024-02-23T00:53:53;9.20;;;6.00;;
75550;SDS011;65071;53.082;18.218;2024-02-23T00:56:23;9.50;;;5.80;;
75550;SDS011;65071;53.082;18.218;2024-02-23T00:58:52;10.50;;;5.60;;
75550;SDS011;65071;53.082;18.218;2024-02-23T01:01:22;9.10;;;5.50;;
75550;SDS011;65071;53.082;18.218;2024-02-23T01:03:53;8.80;;;4.70;;
75550;SDS011;65071;53.082;18.218;2024-02-23T01:06:23;12.00;;;5.70;;
75550;SDS011;65071;53.082;18.218;2024-02-23T01:08:54;9.50;;;5.50;;
75550;SDS011;65071;53.082;18.218;2024-02-23T01:11:23;9.70;;;5.60;;
75550;SDS011;65071;53.082;18.218;2024-02-23T01:13:51;9.60;;;6.30;;
75550;SDS011;65071;53.082;18.218;2024-02-23T01:16:20;9.40;;;4.70;;
75550;SDS011;65071;53.082;18.218;2024-02-23T01:18:49;8.40;;;5.40;;
75550;SDS011;65071;53.082;18.218;2024-02-23T01:21:17;7.60;;;4.90;;
75550;SDS011;65071;53.082;18.218;2024-02-23T01:23:47;11.90;;;5.30;;
75550;SDS011;65071;53.082;18.218;2024-02-23T01:26:17;8.70;;;5.40;;
75550;SDS011;65071;53.082;18.218;2024-02-23T01:28:47;9.90;;;5.40;;
75550;SDS011;65071;53.082;18.218;2024-02-23T01:31:17;7.80;;;5.00;;
75550;SDS011;65071;53.082;18.218;2024-02-23T01:33:47;10.10;;;6.10;;
75550;SDS011;65071;53.082;18.218;2024-02-23T01:36:16;9.30;;;5.80;;
75550;SDS011;65071;53.082;18.218;2024-02-23T01:38:45;11.10;;;5.60;;
75550;SDS011;65071;53.082;18.218;2024-02-23T01:41:12;9.80;;;5.40;;
75550;SDS011;65071;53.082;18.218;2024-02-23T01:43:39;8.20;;;5.30;;
75550;SDS011;65071;53.082;18.218;2024-02-23T01:46:07;9.70;;;6.10;;
75550;SDS011;65071;53.082;18.218;2024-02-23T01:48:35;8.00;;;4.80;;
75550;SDS011;65071;53.082;18.218;2024-02-23T01:51:06;9.40;;;5.40;;
75550;SDS011;65071;53.082;18.218;2024-02-23T01:53:36;10.00;;;5.60;;
75550;SDS011;65071;53.082;18.218;2024-02-23T01:56:05;9.40;;;5.70;;
75550;SDS011;65071;53.082;18.218;2024-02-23T01:58:35;10.30;;;5.40;;
75550;SDS011;65071;53.082;18.218;2024-02-23T02:01:05;7.70;;;5.00;;
75550;SDS011;65071;53.082;18.218;2024-02-23T02:03:38;8.70;;;5.00;;
75550;SDS011;65071;53.082;18.218;2024-02-23T02:06:09;8.90;;;5.40;;
75550;SDS011;65071;53.082;18.218;2024-02-23T02:08:39;10.30;;;5.60;;
75550;SDS011;65071;53.082;18.218;2024-02-23T02:11:09;8.30;;;5.10;;
75550;SDS011;65071;53.082;18.218;2024-02-23T02:13:36;8.10;;;5.10;;
75550;SDS011;65071;53.082;18.218;2024-02-23T02:16:05;9.70;;;4.80;;
75550;SDS011;65071;53.082;18.218;2024-02-23T02:18:34;8.40;;;5.20;;
75550;SDS011;65071;53.082;18.218;2024-02-23T02:21:04;7.00;;;4.50;;
75550;SDS011;65071;53.082;18.218;2024-02-23T02:23:33;6.50;;;4.70;;
75550;SDS011;65071;53.082;18.218;2024-02-23T02:26:06;7.40;;;4.70;;
75550;SDS011;65071;53.082;18.218;2024-02-23T02:28:36;10.40;;;4.60;;
75550;SDS011;65071;53.082;18.218;2024-02-23T02:31:06;7.40;;;4.60;;
75550;SDS011;65071;53.082;18.218;2024-02-23T02:33:39;7.20;;;4.20;;
75550;SDS011;65071;53.082;18.218;2024-02-23T02:36:08;8.80;;;5.20;;
75550;SDS011;65071;53.082;18.218;2024-02-23T02:38:40;7.50;;;4.60;;
75550;SDS011;65071;53.082;18.218;2024-02-23T02:41:10;8.20;;;4.90;;
75550;SDS011;65071;53.082;18.218;2024-02-23T02:43:39;7.30;;;4.30;;
75550;SDS011;65071;53.082;18.218;2024-02-23T02:46:07;7.00;;;4.00;;
75550;SDS011;65071;53.082;18.218;2024-02-23T02:48:34;7.30;;;4.90;;
75550;SDS011;65071;53.082;18.218;2024-02-23T02:51:04;6.50;;;4.10;;
75550;SDS011;65071;53.082;18.218;2024-02-23T02:53:33;7.50;;;4.30;;
75550;SDS011;65071;53.082;18.218;2024-02-23T02:56:05;7.50;;;4.70;;
75550;SDS011;65071;53.082;18.218;2024-02-23T02:58:34;7.30;;;4.40;;
75550;SDS011;65071;53.082;18.218;2024-02-23T03:01:04;8.10;;;4.70;;
75550;SDS011;65071;53.082;18.218;2024-02-23T03:03:34;8.70;;;4.40;;
75550;SDS011;65071;53.082;18.218;2024-02-23T03:06:03;8.00;;;4.70;;
75550;SDS011;65071;53.082;18.218;2024-02-23T03:08:33;7.80;;;4.00;;
75550;SDS011;65071;53.082;18.218;2024-02-23T03:11:02;6.00;;;4.20;;
75550;SDS011;65071;53.082;18.218;2024-02-23T03:13:33;8.00;;;4.40;;
75550;SDS011;65071;53.082;18.218;2024-02-23T03:16:03;7.90;;;4.70;;
75550;SDS011;65071;53.082;18.218;2024-02-23T03:18:34;6.90;;;4.10;;
75550;SDS011;65071;53.082;18.218;2024-02-23T03:21:02;6.60;;;4.00;;
75550;SDS011;65071;53.082;18.218;2024-02-23T03:23:31;6.10;;;3.80;;
75550;SDS011;65071;53.082;18.218;2024-02-23T03:26:00;6.80;;;4.20;;
75550;SDS011;65071;53.082;18.218;2024-02-23T03:28:28;7.00;;;4.70;;
75550;SDS011;65071;53.082;18.218;2024-02-23T03:30:57;6.30;;;4.40;;
75550;SDS011;65071;53.082;18.218;2024-02-23T03:33:28;5.20;;;3.30;;
75550;SDS011;65071;53.082;18.218;2024-02-23T03:35:57;6.40;;;4.10;;
75550;SDS011;65071;53.082;18.218;2024-02-23T03:38:25;7.20;;;4.40;;
75550;SDS011;65071;53.082;18.218;2024-02-23T03:40:54;5.10;;;3.70;;
75550;SDS011;65071;53.082;18.218;2024-02-23T03:43:21;6.10;;;3.60;;
75550;SDS011;65071;53.082;18.218;2024-02-23T03:45:50;6.70;;;4.00;;
75550;SDS011;65071;53.082;18.218;2024-02-23T03:48:29;5.30;;;3.50;;
75550;SDS011;65071;53.082;18.218;2024-02-23T03:50:59;7.10;;;4.10;;
75550;SDS011;65071;53.082;18.218;2024-02-23T03:53:25;5.80;;;4.00;;
75550;SDS011;65071;53.082;18.218;2024-02-23T03:55:52;5.60;;;3.30;;
75550;SDS011;65071;53.082;18.218;2024-02-23T03:58:18;5.20;;;3.50;;
75550;SDS011;65071;53.082;18.218;2024-02-23T04:00:45;7.00;;;4.30;;
75550;SDS011;65071;53.082;18.218;2024-02-23T04:03:11;5.40;;;3.40;;
75550;SDS011;65071;53.082;18.218;2024-02-23T04:05:38;4.80;;;3.00;;
75550;SDS011;65071;53.082;18.218;2024-02-23T04:08:04;5.70;;;3.30;;
75550;SDS011;65071;53.082;18.218;2024-02-23T04:10:30;4.60;;;3.00;;
75550;SDS011;65071;53.082;18.218;2024-02-23T04:12:57;5.30;;;3.30;;
75550;SDS011;65071;53.082;18.218;2024-02-23T04:15:24;5.90;;;3.50;;
75550;SDS011;65071;53.082;18.218;2024-02-23T04:17:50;3.90;;;2.50;;
75550;SDS011;65071;53.082;18.218;2024-02-23T04:20:16;6.50;;;3.30;;
75550;SDS011;65071;53.082;18.218;2024-02-23T04:22:42;4.10;;;3.10;;
75550;SDS011;65071;53.082;18.218;2024-02-23T04:25:09;5.30;;;3.60;;
75550;SDS011;65071;53.082;18.218;2024-02-23T04:27:35;4.60;;;3.00;;
75550;SDS011;65071;53.082;18.218;2024-02-23T04:30:02;4.20;;;2.80;;
75550;SDS011;65071;53.082;18.218;2024-02-23T04:32:28;2.90;;;2.30;;
75550;SDS011;65071;53.082;18.218;2024-02-23T04:34:55;3.60;;;2.80;;
75550;SDS011;65071;53.082;18.218;2024-02-23T04:37:22;4.10;;;2.20;;
75550;SDS011;65071;53.082;18.218;2024-02-23T04:39:48;3.70;;;2.20;;
75550;SDS011;65071;53.082;18.218;2024-02-23T04:42:14;2.70;;;1.90;;
75550;SDS011;65071;53.082;18.218;2024-02-23T04:44:41;4.60;;;2.60;;
75550;SDS011;65071;53.082;18.218;2024-02-23T04:47:08;3.70;;;2.30;;
75550;SDS011;65071;53.082;18.218;2024-02-23T04:49:35;4.40;;;2.40;;
75550;SDS011;65071;53.082;18.218;2024-02-23T04:52:01;3.50;;;2.40;;
75550;SDS011;65071;53.082;18.218;2024-02-23T04:54:28;4.30;;;1.60;;
75550;SDS011;65071;53.082;18.218;2024-02-23T04:56:55;3.30;;;1.90;;
75550;SDS011;65071;53.082;18.218;2024-02-23T04:59:22;3.30;;;1.70;;
75550;SDS011;65071;53.082;18.218;2024-02-23T05:01:48;3.40;;;1.80;;
75550;SDS011;65071;53.082;18.218;2024-02-23T05:04:15;2.90;;;1.90;;
75550;SDS011;65071;53.082;18.218;2024-02-23T05:06:41;3.50;;;2.20;;
75550;SDS011;65071;53.082;18.218;2024-02-23T05:09:09;2.30;;;1.50;;
75550;SDS011;65071;53.082;18.218;2024-02-23T05:11:37;2.40;;;1.70;;
75550;SDS011;65071;53.082;18.218;2024-02-23T05:14:03;3.00;;;1.80;;
75550;SDS011;65071;53.082;18.218;2024-02-23T05:16:29;2.60;;;1.60;;
75550;SDS011;65071;53.082;18.218;2024-02-23T05:18:56;3.50;;;1.70;;
75550;SDS011;65071;53.082;18.218;2024-02-23T05:21:22;2.40;;;1.40;;
75550;SDS011;65071;53.082;18.218;2024-02-23T05:23:48;2.50;;;1.60;;
75550;SDS011;65071;53.082;18.218;2024-02-23T05:26:15;2.70;;;2.00;;
75550;SDS011;65071;53.082;18.218;2024-02-23T05:28:41;2.40;;;1.80;;
75550;SDS011;65071;53.082;18.218;2024-02-23T05:31:09;3.10;;;1.50;;
75550;SDS011;65071;53.082;18.218;2024-02-23T05:33:35;2.50;;;1.60;;
75550;SDS011;65071;53.082;18.218;2024-02-23T05:36:04;1.90;;;1.40;;
75550;SDS011;65071;53.082;18.218;2024-02-23T05:38:31;1.80;;;1.30;;
75550;SDS011;65071;53.082;18.218;2024-02-23T05:40:57;2.70;;;1.40;;
75550;SDS011;65071;53.082;18.218;2024-02-23T05:43:24;2.50;;;1.70;;
75550;SDS011;65071;53.082;18.218;2024-02-23T05:45:50;2.30;;;1.60;;
75550;SDS011;65071;53.082;18.218;2024-02-23T05:48:16;2.60;;;1.50;;
75550;SDS011;65071;53.082;18.218;2024-02-23T05:50:45;2.80;;;1.50;;
75550;SDS011;65071;53.082;18.218;2024-02-23T05:53:11;1.80;;;1.40;;
75550;SDS011;65071;53.082;18.218;2024-02-23T05:55:37;2.10;;;1.40;;
75550;SDS011;65071;53.082;18.218;2024-02-23T05:58:03;2.20;;;1.20;;
75550;SDS011;65071;53.082;18.218;2024-02-23T06:00:31;1.80;;;1.50;;
75550;SDS011;65071;53.082;18.218;2024-02-23T06:02:58;2.40;;;1.60;;
75550;SDS011;65071;53.082;18.218;2024-02-23T06:05:24;2.90;;;2.10;;
75550;SDS011;65071;53.082;18.218;2024-02-23T06:07:50;1.90;;;1.40;;
75550;SDS011;65071;53.082;18.218;2024-02-23T06:10:17;2.10;;;1.40;;
75550;SDS011;65071;53.082;18.218;2024-02-23T06:12:44;2.10;;;1.50;;
75550;SDS011;65071;53.082;18.218;2024-02-23T06:15:10;2.20;;;1.60;;
75550;SDS011;65071;53.082;18.218;2024-02-23T06:17:37;1.80;;;1.30;;
75550;SDS011;65071;53.082;18.218;2024-02-23T06:20:04;1.90;;;1.60;;
75550;SDS011;65071;53.082;18.218;2024-02-23T06:22:33;3.40;;;2.00;;
75550;SDS011;65071;53.082;18.218;2024-02-23T06:25:00;5.70;;;2.90;;
75550;SDS011;65071;53.082;18.218;2024-02-23T06:27:27;3.40;;;2.00;;
75550;SDS011;65071;53.082;18.218;2024-02-23T06:29:53;2.20;;;1.50;;
75550;SDS011;65071;53.082;18.218;2024-02-23T06:32:20;3.00;;;1.60;;
75550;SDS011;65071;53.082;18.218;2024-02-23T06:34:47;4.10;;;1.50;;
75550;SDS011;65071;53.082;18.218;2024-02-23T06:37:13;2.20;;;1.20;;
75550;SDS011;65071;53.082;18.218;2024-02-23T06:39:39;1.90;;;1.30;;
75550;SDS011;65071;53.082;18.218;2024-02-23T06:42:06;3.50;;;1.60;;
75550;SDS011;65071;53.082;18.218;2024-02-23T06:44:32;3.50;;;2.00;;
75550;SDS011;65071;53.082;18.218;2024-02-23T06:46:59;2.80;;;1.40;;
75550;SDS011;65071;53.082;18.218;2024-02-23T06:49:25;4.70;;;1.20;;
75550;SDS011;65071;53.082;18.218;2024-02-23T06:51:52;1.80;;;1.10;;
75550;SDS011;65071;53.082;18.218;2024-02-23T06:54:18;1.50;;;0.90;;
75550;SDS011;65071;53.082;18.218;2024-02-23T06:56:45;2.10;;;1.10;;
75550;SDS011;65071;53.082;18.218;2024-02-23T06:59:11;1.50;;;0.80;;
75550;SDS011;65071;53.082;18.218;2024-02-23T07:01:47;1.80;;;1.30;;
75550;SDS011;65071;53.082;18.218;2024-02-23T07:04:14;1.90;;;1.20;;
75550;SDS011;65071;53.082;18.218;2024-02-23T07:06:41;1.50;;;0.90;;
75550;SDS011;65071;53.082;18.218;2024-02-23T07:09:07;1.70;;;1.00;;
75550;SDS011;65071;53.082;18.218;2024-02-23T07:11:34;2.40;;;0.90;;
75550;SDS011;65071;53.082;18.218;2024-02-23T07:14:00;1.60;;;0.90;;
75550;SDS011;65071;53.082;18.218;2024-02-23T07:16:27;1.60;;;1.00;;
75550;SDS011;65071;53.082;18.218;2024-02-23T07:18:53;2.10;;;1.20;;
75550;SDS011;65071;53.082;18.218;2024-02-23T07:21:20;1.50;;;0.90;;
75550;SDS011;65071;53.082;18.218;2024-02-23T07:23:47;3.10;;;1.20;;
75550;SDS011;65071;53.082;18.218;2024-02-23T07:26:14;2.40;;;1.20;;
75550;SDS011;65071;53.082;18.218;2024-02-23T07:28:40;2.40;;;0.90;;
75550;SDS011;65071;53.082;18.218;2024-02-23T07:31:06;1.80;;;1.00;;
75550;SDS011;65071;53.082;18.218;2024-02-23T07:33:32;1.40;;;0.80;;
75550;SDS011;65071;53.082;18.218;2024-02-23T07:35:59;1.70;;;0.70;;
75550;SDS011;65071;53.082;18.218;2024-02-23T07:38:25;1.40;;;0.80;;
75550;SDS011;65071;53.082;18.218;2024-02-23T07:40:52;1.20;;;0.90;;
75550;SDS011;65071;53.082;18.218;2024-02-23T07:43:18;1.90;;;0.90;;
75550;SDS011;65071;53.082;18.218;2024-02-23T07:45:45;2.20;;;0.80;;
75550;SDS011;65071;53.082;18.218;2024-02-23T07:48:11;2.40;;;0.80;;
75550;SDS011;65071;53.082;18.218;2024-02-23T07:50:38;1.10;;;0.60;;
75550;SDS011;65071;53.082;18.218;2024-02-23T07:53:04;1.30;;;0.60;;
75550;SDS011;65071;53.082;18.218;2024-02-23T07:55:30;1.40;;;0.80;;
75550;SDS011;65071;53.082;18.218;2024-02-23T07:57:57;1.90;;;0.90;;
75550;SDS011;65071;53.082;18.218;2024-02-23T08:00:27;3.30;;;0.70;;
75550;SDS011;65071;53.082;18.218;2024-02-23T08:02:54;0.50;;;0.50;;
75550;SDS011;65071;53.082;18.218;2024-02-23T08:05:22;0.90;;;0.50;;
75550;SDS011;65071;53.082;18.218;2024-02-23T08:07:49;0.50;;;0.30;;
75550;SDS011;65071;53.082;18.218;2024-02-23T08:10:16;1.50;;;0.50;;
75550;SDS011;65071;53.082;18.218;2024-02-23T08:12:42;1.00;;;0.70;;
75550;SDS011;65071;53.082;18.218;2024-02-23T08:15:09;2.40;;;1.10;;
75550;SDS011;65071;53.082;18.218;2024-02-23T08:17:35;1.60;;;0.80;;
75550;SDS011;65071;53.082;18.218;2024-02-23T08:20:02;1.80;;;0.70;;
75550;SDS011;65071;53.082;18.218;2024-02-23T08:22:30;0.90;;;0.50;;
75550;SDS011;65071;53.082;18.218;2024-02-23T08:24:57;0.80;;;0.60;;
75550;SDS011;65071;53.082;18.218;2024-02-23T08:27:23;0.90;;;0.70;;
75550;SDS011;65071;53.082;18.218;2024-02-23T08:29:49;1.40;;;0.60;;
75550;SDS011;65071;53.082;18.218;2024-02-23T08:32:16;0.70;;;0.60;;
75550;SDS011;65071;53.082;18.218;2024-02-23T08:34:43;1.60;;;0.80;;
75550;SDS011;65071;53.082;18.218;2024-02-23T08:37:10;2.60;;;1.00;;
75550;SDS011;65071;53.082;18.218;2024-02-23T08:39:36;1.90;;;0.90;;
75550;SDS011;65071;53.082;18.218;2024-02-23T08:42:03;2.00;;;0.60;;
75550;SDS011;65071;53.082;18.218;2024-02-23T08:44:29;1.90;;;0.80;;
75550;SDS011;65071;53.082;18.218;2024-02-23T08:46:56;2.90;;;1.00;;
75550;SDS011;65071;53.082;18.218;2024-02-23T08:49:22;3.10;;;0.90;;
75550;SDS011;65071;53.082;18.218;2024-02-23T08:51:49;1.80;;;0.80;;
75550;SDS011;65071;53.082;18.218;2024-02-23T08:54:15;1.70;;;0.70;;
75550;SDS011;65071;53.082;18.218;2024-02-23T08:56:41;5.10;;;0.80;;
75550;SDS011;65071;53.082;18.218;2024-02-23T08:59:08;2.10;;;0.90;;
75550;SDS011;65071;53.082;18.218;2024-02-23T09:01:35;4.20;;;0.90;;
75550;SDS011;65071;53.082;18.218;2024-02-23T09:04:02;1.50;;;0.90;;
75550;SDS011;65071;53.082;18.218;2024-02-23T09:06:28;1.40;;;0.80;;
75550;SDS011;65071;53.082;18.218;2024-02-23T09:08:55;1.40;;;0.90;;
75550;SDS011;65071;53.082;18.218;2024-02-23T09:11:22;1.40;;;0.60;;
75550;SDS011;65071;53.082;18.218;2024-02-23T09:13:48;1.60;;;0.80;;
75550;SDS011;65071;53.082;18.218;2024-02-23T09:16:15;2.30;;;0.70;;
75550;SDS011;65071;53.082;18.218;2024-02-23T09:18:42;2.40;;;0.70;;
75550;SDS011;65071;53.082;18.218;2024-02-23T09:21:08;1.80;;;0.70;;
75550;SDS011;65071;53.082;18.218;2024-02-23T09:23:35;1.00;;;0.60;;
75550;SDS011;65071;53.082;18.218;2024-02-23T09:26:08;0.80;;;0.50;;
75550;SDS011;65071;53.082;18.218;2024-02-23T09:28:35;2.50;;;0.70;;
75550;SDS011;65071;53.082;18.218;2024-02-23T09:31:01;2.40;;;0.70;;
75550;SDS011;65071;53.082;18.218;2024-02-23T09:33:34;2.00;;;0.60;;
75550;SDS011;65071;53.082;18.218;2024-02-23T09:36:01;0.60;;;0.40;;
75550;SDS011;65071;53.082;18.218;2024-02-23T09:38:28;1.00;;;0.50;;
75550;SDS011;65071;53.082;18.218;2024-02-23T09:40:54;1.40;;;0.60;;
75550;SDS011;65071;53.082;18.218;2024-02-23T09:43:23;2.60;;;0.70;;
75550;SDS011;65071;53.082;18.218;2024-02-23T09:45:57;1.50;;;0.60;;
75550;SDS011;65071;53.082;18.218;2024-02-23T09:48:27;1.00;;;0.60;;
75550;SDS011;65071;53.082;18.218;2024-02-23T09:50:54;2.00;;;0.70;;
75550;SDS011;65071;53.082;18.218;2024-02-23T09:53:22;1.00;;;0.70;;
75550;SDS011;65071;53.082;18.218;2024-02-23T09:55:49;1.10;;;0.80;;
75550;SDS011;65071;53.082;18.218;2024-02-23T09:58:17;2.10;;;0.90;;
75550;SDS011;65071;53.082;18.218;2024-02-23T10:00:45;2.70;;;0.60;;
75550;SDS011;65071;53.082;18.218;2024-02-23T10:03:12;1.10;;;0.60;;
75550;SDS011;65071;53.082;18.218;2024-02-23T10:05:38;2.10;;;0.70;;
75550;SDS011;65071;53.082;18.218;2024-02-23T10:08:05;2.10;;;0.80;;
75550;SDS011;65071;53.082;18.218;2024-02-23T10:10:35;2.20;;;0.80;;
75550;SDS011;65071;53.082;18.218;2024-02-23T10:13:01;0.80;;;0.60;;
75550;SDS011;65071;53.082;18.218;2024-02-23T10:15:30;1.90;;;0.90;;
75550;SDS011;65071;53.082;18.218;2024-02-23T10:17:57;1.80;;;0.80;;
75550;SDS011;65071;53.082;18.218;2024-02-23T10:20:23;1.40;;;0.50;;
75550;SDS011;65071;53.082;18.218;2024-02-23T10:22:49;0.90;;;0.50;;
75550;SDS011;65071;53.082;18.218;2024-02-23T10:25:16;1.40;;;0.40;;
75550;SDS011;65071;53.082;18.218;2024-02-23T10:27:43;2.40;;;0.60;;
75550;SDS011;65071;53.082;18.218;2024-02-23T10:30:09;1.00;;;0.40;;
75550;SDS011;65071;53.082;18.218;2024-02-23T10:32:38;1.60;;;0.30;;
75550;SDS011;65071;53.082;18.218;2024-02-23T10:35:06;0.30;;;0.30;;
75550;SDS011;65071;53.082;18.218;2024-02-23T10:37:36;0.50;;;0.30;;
75550;SDS011;65071;53.082;18.218;2024-02-23T10:40:02;1.20;;;0.50;;
75550;SDS011;65071;53.082;18.218;2024-02-23T10:42:33;1.10;;;0.50;;
75550;SDS011;65071;53.082;18.218;2024-02-23T10:45:00;0.90;;;0.30;;
75550;SDS011;65071;53.082;18.218;2024-02-23T10:47:28;0.80;;;0.60;;
75550;SDS011;65071;53.082;18.218;2024-02-23T10:49:56;0.70;;;0.30;;
75550;SDS011;65071;53.082;18.218;2024-02-23T10:52:25;2.50;;;0.40;;
75550;SDS011;65071;53.082;18.218;2024-02-23T10:54:53;1.30;;;0.50;;
75550;SDS011;65071;53.082;18.218;2024-02-23T10:57:20;2.00;;;0.50;;
75550;SDS011;65071;53.082;18.218;2024-02-23T10:59:46;0.90;;;0.40;;
75550;SDS011;65071;53.082;18.218;2024-02-23T11:02:14;1.40;;;0.30;;
75550;SDS011;65071;53.082;18.218;2024-02-23T11:04:48;1.00;;;0.40;;
75550;SDS011;65071;53.082;18.218;2024-02-23T11:07:19;1.20;;;0.30;;
75550;SDS011;65071;53.082;18.218;2024-02-23T11:09:53;1.20;;;0.60;;
75550;SDS011;65071;53.082;18.218;2024-02-23T11:12:22;0.90;;;0.30;;
75550;SDS011;65071;53.082;18.218;2024-02-23T11:14:50;1.30;;;0.50;;
75550;SDS011;65071;53.082;18.218;2024-02-23T11:17:18;0.90;;;0.50;;
75550;SDS011;65071;53.082;18.218;2024-02-23T11:19:51;1.30;;;0.40;;
75550;SDS011;65071;53.082;18.218;2024-02-23T11:22:24;1.70;;;0.60;;
75550;SDS011;65071;53.082;18.218;2024-02-23T11:24:52;0.80;;;0.50;;
75550;SDS011;65071;53.082;18.218;2024-02-23T11:27:18;3.40;;;0.50;;
75550;SDS011;65071;53.082;18.218;2024-02-23T11:29:45;1.40;;;0.40;;
75550;SDS011;65071;53.082;18.218;2024-02-23T11:32:13;0.50;;;0.30;;
75550;SDS011;65071;53.082;18.218;2024-02-23T11:34:40;0.30;;;0.30;;
75550;SDS011;65071;53.082;18.218;2024-02-23T11:37:09;0.50;;;0.30;;
75550;SDS011;65071;53.082;18.218;2024-02-23T11:39:37;1.40;;;0.30;;
75550;SDS011;65071;53.082;18.218;2024-02-23T11:42:06;0.90;;;0.30;;
75550;SDS011;65071;53.082;18.218;2024-02-23T11:44:32;0.80;;;0.30;;
75550;SDS011;65071;53.082;18.218;2024-02-23T11:46:59;0.90;;;0.40;;
75550;SDS011;65071;53.082;18.218;2024-02-23T11:49:29;0.90;;;0.30;;
75550;SDS011;65071;53.082;18.218;2024-02-23T11:51:56;0.50;;;0.30;;
75550;SDS011;65071;53.082;18.218;2024-02-23T11:54:22;2.70;;;0.50;;
75550;SDS011;65071;53.082;18.218;2024-02-23T11:56:49;0.40;;;0.30;;
75550;SDS011;65071;53.082;18.218;2024-02-23T11:59:15;2.80;;;0.50;;
75550;SDS011;65071;53.082;18.218;2024-02-23T12:01:42;0.60;;;0.50;;
75550;SDS011;65071;53.082;18.218;2024-02-23T12:04:09;0.50;;;0.40;;
75550;SDS011;65071;53.082;18.218;2024-02-23T12:06:35;0.50;;;0.30;;
75550;SDS011;65071;53.082;18.218;2024-02-23T12:09:02;0.70;;;0.40;;
75550;SDS011;65071;53.082;18.218;2024-02-23T12:11:30;1.00;;;0.40;;
75550;SDS011;65071;53.082;18.218;2024-02-23T12:13:57;0.70;;;0.30;;
75550;SDS011;65071;53.082;18.218;2024-02-23T12:16:23;1.00;;;0.40;;
75550;SDS011;65071;53.082;18.218;2024-02-23T12:18:53;0.60;;;0.30;;
75550;SDS011;65071;53.082;18.218;2024-02-23T12:21:22;1.20;;;0.40;;
75550;SDS011;65071;53.082;18.218;2024-02-23T12:23:49;0.70;;;0.20;;
75550;SDS011;65071;53.082;18.218;2024-02-23T12:26:17;1.30;;;0.50;;
75550;SDS011;65071;53.082;18.218;2024-02-23T12:28:44;0.50;;;0.40;;
75550;SDS011;65071;53.082;18.218;2024-02-23T12:31:14;1.10;;;0.50;;
75550;SDS011;65071;53.082;18.218;2024-02-23T12:33:41;0.50;;;0.30;;
75550;SDS011;65071;53.082;18.218;2024-02-23T12:36:08;2.30;;;0.50;;
75550;SDS011;65071;53.082;18.218;2024-02-23T12:38:36;0.80;;;0.40;;
75550;SDS011;65071;53.082;18.218;2024-02-23T12:41:02;1.50;;;0.70;;
75550;SDS011;65071;53.082;18.218;2024-02-23T12:43:30;1.20;;;0.50;;
75550;SDS011;65071;53.082;18.218;2024-02-23T12:45:57;0.60;;;0.40;;
75550;SDS011;65071;53.082;18.218;2024-02-23T12:48:23;0.90;;;0.40;;
75550;SDS011;65071;53.082;18.218;2024-02-23T12:50:51;1.30;;;0.60;;
75550;SDS011;65071;53.082;18.218;2024-02-23T12:55:58;1.30;;;0.40;;
75550;SDS011;65071;53.082;18.218;2024-02-23T12:58:25;0.40;;;0.30;;
75550;SDS011;65071;53.082;18.218;2024-02-23T13:00:52;0.70;;;0.50;;
75550;SDS011;65071;53.082;18.218;2024-02-23T13:03:18;0.50;;;0.40;;
75550;SDS011;65071;53.082;18.218;2024-02-23T13:05:45;0.40;;;0.30;;
75550;SDS011;65071;53.082;18.218;2024-02-23T13:08:11;0.90;;;0.40;;
75550;SDS011;65071;53.082;18.218;2024-02-23T13:10:38;1.10;;;0.40;;
75550;SDS011;65071;53.082;18.218;2024-02-23T13:13:04;1.00;;;0.40;;
75550;SDS011;65071;53.082;18.218;2024-02-23T13:15:31;1.20;;;0.40;;
75550;SDS011;65071;53.082;18.218;2024-02-23T13:17:57;0.80;;;0.30;;
75550;SDS011;65071;53.082;18.218;2024-02-23T13:20:24;1.60;;;0.50;;
75550;SDS011;65071;53.082;18.218;2024-02-23T13:22:50;1.00;;;0.50;;
75550;SDS011;65071;53.082;18.218;2024-02-23T13:25:17;1.10;;;0.60;;
75550;SDS011;65071;53.082;18.218;2024-02-23T13:27:43;0.60;;;0.50;;
75550;SDS011;65071;53.082;18.218;2024-02-23T13:30:09;4.10;;;0.80;;
75550;SDS011;65071;53.082;18.218;2024-02-23T13:32:36;0.80;;;0.50;;
75550;SDS011;65071;53.082;18.218;2024-02-23T13:35:03;2.50;;;1.10;;
75550;SDS011;65071;53.082;18.218;2024-02-23T13:37:30;3.80;;;1.30;;
75550;SDS011;65071;53.082;18.218;2024-02-23T13:39:57;3.20;;;1.30;;
75550;SDS011;65071;53.082;18.218;2024-02-23T13:42:23;3.80;;;1.00;;
75550;SDS011;65071;53.082;18.218;2024-02-23T13:44:49;1.60;;;0.60;;
75550;SDS011;65071;53.082;18.218;2024-02-23T13:47:16;1.10;;;0.80;;
75550;SDS011;65071;53.082;18.218;2024-02-23T13:49:43;1.30;;;0.80;;
75550;SDS011;65071;53.082;18.218;2024-02-23T13:52:09;2.00;;;1.00;;
75550;SDS011;65071;53.082;18.218;2024-02-23T13:54:36;1.40;;;0.70;;
75550;SDS011;65071;53.082;18.218;2024-02-23T13:57:02;1.30;;;0.70;;
75550;SDS011;65071;53.082;18.218;2024-02-23T13:59:29;1.80;;;0.90;;
75550;SDS011;65071;53.082;18.218;2024-02-23T14:01:55;1.90;;;0.90;;
75550;SDS011;65071;53.082;18.218;2024-02-23T14:04:22;2.40;;;0.60;;
75550;SDS011;65071;53.082;18.218;2024-02-23T14:06:48;1.80;;;0.90;;
75550;SDS011;65071;53.082;18.218;2024-02-23T14:09:14;1.40;;;0.80;;
75550;SDS011;65071;53.082;18.218;2024-02-23T14:11:41;1.40;;;0.80;;
75550;SDS011;65071;53.082;18.218;2024-02-23T14:14:07;2.60;;;1.30;;
75550;SDS011;65071;53.082;18.218;2024-02-23T14:16:34;2.30;;;1.30;;
75550;SDS011;65071;53.082;18.218;2024-02-23T14:19:00;1.50;;;0.60;;
75550;SDS011;65071;53.082;18.218;2024-02-23T14:21:27;1.20;;;0.80;;
75550;SDS011;65071;53.082;18.218;2024-02-23T14:23:54;0.90;;;0.60;;
75550;SDS011;65071;53.082;18.218;2024-02-23T14:26:20;2.30;;;0.70;;
75550;SDS011;65071;53.082;18.218;2024-02-23T14:28:47;1.70;;;0.80;;
75550;SDS011;65071;53.082;18.218;2024-02-23T14:31:15;1.10;;;0.70;;
75550;SDS011;65071;53.082;18.218;2024-02-23T14:33:41;3.00;;;0.70;;
75550;SDS011;65071;53.082;18.218;2024-02-23T14:36:07;2.50;;;0.90;;
75550;SDS011;65071;53.082;18.218;2024-02-23T14:38:34;1.70;;;0.70;;